This is the latest recevied weather packets stored in our database for station/object K8RLH. If no packets are shown the sender has not sent any weather packets the latest 10 day(s).
| Time | Temp. | Humidity | Pressure | Rain* | Wind** | Luminosity | Snow |
|---|---|---|---|---|---|---|---|
| 1777757959 | 18.33° C | 57% | 1013.1 hPa | 0 mm | - | 97 W/m² | - |
| 1777757656 | 18.33° C | 59% | 1013 hPa | 0 mm | - | 122 W/m² | - |
| 1777757355 | 18.33° C | 59% | 1013.2 hPa | 0 mm | - | 111 W/m² | - |
| 1777757053 | 18.33° C | 59% | 1013.1 hPa | 0 mm | - | 105 W/m² | - |
| 1777756750 | 18.33° C | 59% | 1013.2 hPa | 0 mm | - | 103 W/m² | - |
| 1777756451 | 18.33° C | 59% | 1013.3 hPa | 0 mm | - | 70 W/m² | - |
| 1777756148 | 18.33° C | 60% | 1013.2 hPa | 0 mm | - | 78 W/m² | - |
| 1777755845 | 18.89° C | 58% | 1013.2 hPa | 0 mm | - | 87 W/m² | - |
| 1777755543 | 18.89° C | 57% | 1013.1 hPa | 0 mm | - | 76 W/m² | - |
| 1777755238 | 18.89° C | 58% | 1013.2 hPa | 0 mm | - | 201 W/m² | - |
| 1777754936 | 18.33° C | 61% | 1013.1 hPa | 0 mm | - | 243 W/m² | - |
| 1777754633 | 18.33° C | 59% | 1013.4 hPa | 0 mm | - | 92 W/m² | - |
| 1777754330 | 18.33° C | 58% | 1013.3 hPa | 0 mm | - | 96 W/m² | - |
| 1777754028 | 18.89° C | 55% | 1013.4 hPa | 0 mm | - | 89 W/m² | - |
| 1777753723 | 20° C | 53% | 1013.4 hPa | 0 mm | - | 138 W/m² | - |
| 1777753421 | 19.44° C | 55% | 1013.3 hPa | 0 mm | - | 630 W/m² | - |
| 1777753119 | 18.89° C | 57% | 1013.4 hPa | 0 mm | - | 202 W/m² | - |
| 1777752814 | 18.89° C | 56% | 1013.6 hPa | 0 mm | - | 142 W/m² | - |
| 1777752511 | 18.33° C | 58% | 1013.4 hPa | 0 mm | - | 195 W/m² | - |
| 1777752207 | 18.33° C | 60% | 1013.7 hPa | 0 mm | - | 149 W/m² | - |
| 1777751905 | 17.78° C | 59% | 1013.6 hPa | 0 mm | - | 76 W/m² | - |
| 1777751601 | 17.78° C | 59% | 1013.4 hPa | 0 mm | - | 81 W/m² | - |
| 1777751298 | 17.78° C | 59% | 1013.5 hPa | 0 mm | - | 118 W/m² | - |
| 1777750995 | 17.78° C | 60% | 1013.4 hPa | 0 mm | - | 109 W/m² | - |
| 1777750691 | 17.78° C | 60% | 1013.5 hPa | 0 mm | - | 154 W/m² | - |
* Rain latest hour (hover to see other rain measurements)
** Current wind speed in m/s (hover to see current wind gust speed)